sensor_id;sensor_type;location;lat;lon;timestamp;P1;durP1;ratioP1;P2;durP2;ratioP2
30681;SDS011;17439;48.092;11.842;2023-02-24T00:00:10;55.03;;;17.30;;
30681;SDS011;17439;48.092;11.842;2023-02-24T00:02:38;57.95;;;18.67;;
30681;SDS011;17439;48.092;11.842;2023-02-24T00:05:05;61.60;;;19.38;;
30681;SDS011;17439;48.092;11.842;2023-02-24T00:07:32;41.63;;;12.97;;
30681;SDS011;17439;48.092;11.842;2023-02-24T00:09:58;28.13;;;10.23;;
30681;SDS011;17439;48.092;11.842;2023-02-24T00:12:25;18.08;;;7.07;;
30681;SDS011;17439;48.092;11.842;2023-02-24T00:14:52;11.38;;;4.55;;
30681;SDS011;17439;48.092;11.842;2023-02-24T00:17:18;7.07;;;3.45;;
30681;SDS011;17439;48.092;11.842;2023-02-24T00:19:45;5.35;;;3.00;;
30681;SDS011;17439;48.092;11.842;2023-02-24T00:22:11;5.22;;;2.45;;
30681;SDS011;17439;48.092;11.842;2023-02-24T00:24:38;5.18;;;2.85;;
30681;SDS011;17439;48.092;11.842;2023-02-24T00:27:05;6.75;;;2.97;;
30681;SDS011;17439;48.092;11.842;2023-02-24T00:29:32;5.93;;;2.97;;
30681;SDS011;17439;48.092;11.842;2023-02-24T00:31:58;7.20;;;2.75;;
30681;SDS011;17439;48.092;11.842;2023-02-24T00:34:26;5.60;;;3.33;;
30681;SDS011;17439;48.092;11.842;2023-02-24T00:36:57;5.03;;;2.33;;
30681;SDS011;17439;48.092;11.842;2023-02-24T00:39:25;7.70;;;2.60;;
30681;SDS011;17439;48.092;11.842;2023-02-24T00:41:53;6.25;;;3.10;;
30681;SDS011;17439;48.092;11.842;2023-02-24T00:44:19;4.32;;;2.05;;
30681;SDS011;17439;48.092;11.842;2023-02-24T00:46:46;7.28;;;2.88;;
30681;SDS011;17439;48.092;11.842;2023-02-24T00:49:13;6.57;;;3.05;;
30681;SDS011;17439;48.092;11.842;2023-02-24T00:51:44;6.13;;;2.92;;
30681;SDS011;17439;48.092;11.842;2023-02-24T00:54:13;7.93;;;2.53;;
30681;SDS011;17439;48.092;11.842;2023-02-24T00:56:41;4.03;;;2.38;;
30681;SDS011;17439;48.092;11.842;2023-02-24T00:59:09;5.90;;;2.17;;
30681;SDS011;17439;48.092;11.842;2023-02-24T01:01:38;6.07;;;2.33;;
30681;SDS011;17439;48.092;11.842;2023-02-24T01:04:05;7.43;;;2.93;;
30681;SDS011;17439;48.092;11.842;2023-02-24T01:06:33;3.97;;;2.35;;
30681;SDS011;17439;48.092;11.842;2023-02-24T01:08:59;3.80;;;2.20;;
30681;SDS011;17439;48.092;11.842;2023-02-24T01:11:32;5.90;;;2.55;;
30681;SDS011;17439;48.092;11.842;2023-02-24T01:14:03;6.43;;;2.70;;
30681;SDS011;17439;48.092;11.842;2023-02-24T01:16:31;4.88;;;2.30;;
30681;SDS011;17439;48.092;11.842;2023-02-24T01:18:58;3.20;;;2.05;;
30681;SDS011;17439;48.092;11.842;2023-02-24T01:21:26;6.80;;;2.57;;
30681;SDS011;17439;48.092;11.842;2023-02-24T01:23:53;3.53;;;2.40;;
30681;SDS011;17439;48.092;11.842;2023-02-24T01:26:20;4.53;;;2.00;;
30681;SDS011;17439;48.092;11.842;2023-02-24T01:28:46;5.05;;;2.33;;
30681;SDS011;17439;48.092;11.842;2023-02-24T01:31:14;7.90;;;1.90;;
30681;SDS011;17439;48.092;11.842;2023-02-24T01:33:42;4.95;;;2.08;;
30681;SDS011;17439;48.092;11.842;2023-02-24T01:36:14;7.07;;;2.30;;
30681;SDS011;17439;48.092;11.842;2023-02-24T01:38:43;4.20;;;1.90;;
30681;SDS011;17439;48.092;11.842;2023-02-24T01:41:13;4.60;;;2.05;;
30681;SDS011;17439;48.092;11.842;2023-02-24T01:43:58;3.38;;;1.90;;
30681;SDS011;17439;48.092;11.842;2023-02-24T01:46:28;4.25;;;1.52;;
30681;SDS011;17439;48.092;11.842;2023-02-24T01:49:04;4.35;;;1.88;;
30681;SDS011;17439;48.092;11.842;2023-02-24T01:51:35;4.80;;;2.35;;
30681;SDS011;17439;48.092;11.842;2023-02-24T01:54:05;3.65;;;2.28;;
30681;SDS011;17439;48.092;11.842;2023-02-24T01:56:35;4.45;;;2.20;;
30681;SDS011;17439;48.092;11.842;2023-02-24T01:59:03;4.38;;;2.80;;
30681;SDS011;17439;48.092;11.842;2023-02-24T02:01:30;2.90;;;1.73;;
30681;SDS011;17439;48.092;11.842;2023-02-24T02:03:58;5.07;;;2.47;;
30681;SDS011;17439;48.092;11.842;2023-02-24T02:06:30;5.05;;;2.22;;
30681;SDS011;17439;48.092;11.842;2023-02-24T02:08:57;5.30;;;2.25;;
30681;SDS011;17439;48.092;11.842;2023-02-24T02:11:25;3.87;;;1.83;;
30681;SDS011;17439;48.092;11.842;2023-02-24T02:13:51;3.60;;;2.53;;
30681;SDS011;17439;48.092;11.842;2023-02-24T02:51:02;9.55;;;4.30;;
30681;SDS011;17439;48.092;11.842;2023-02-24T02:53:34;9.13;;;3.65;;
30681;SDS011;17439;48.092;11.842;2023-02-24T02:56:07;5.90;;;3.50;;
30681;SDS011;17439;48.092;11.842;2023-02-24T02:58:35;6.40;;;3.15;;
30681;SDS011;17439;48.092;11.842;2023-02-24T03:01:05;5.85;;;2.60;;
30681;SDS011;17439;48.092;11.842;2023-02-24T03:03:39;5.68;;;2.78;;
30681;SDS011;17439;48.092;11.842;2023-02-24T03:06:26;6.90;;;2.22;;
30681;SDS011;17439;48.092;11.842;2023-02-24T03:08:57;6.43;;;2.60;;
30681;SDS011;17439;48.092;11.842;2023-02-24T03:11:27;4.63;;;2.03;;
30681;SDS011;17439;48.092;11.842;2023-02-24T03:13:55;11.68;;;4.45;;
30681;SDS011;17439;48.092;11.842;2023-02-24T03:16:23;20.23;;;6.47;;
30681;SDS011;17439;48.092;11.842;2023-02-24T03:18:54;20.42;;;6.38;;
30681;SDS011;17439;48.092;11.842;2023-02-24T03:21:27;18.95;;;7.38;;
30681;SDS011;17439;48.092;11.842;2023-02-24T03:23:58;15.43;;;5.30;;
30681;SDS011;17439;48.092;11.842;2023-02-24T03:26:48;12.40;;;4.30;;
30681;SDS011;17439;48.092;11.842;2023-02-24T03:29:23;9.30;;;4.00;;
30681;SDS011;17439;48.092;11.842;2023-02-24T03:37:14;5.30;;;2.63;;
30681;SDS011;17439;48.092;11.842;2023-02-24T03:39:41;11.10;;;3.70;;
30681;SDS011;17439;48.092;11.842;2023-02-24T03:42:15;8.07;;;2.60;;
30681;SDS011;17439;48.092;11.842;2023-02-24T03:44:44;5.63;;;2.67;;
30681;SDS011;17439;48.092;11.842;2023-02-24T03:47:12;2.77;;;1.97;;
30681;SDS011;17439;48.092;11.842;2023-02-24T03:49:40;7.35;;;2.60;;
30681;SDS011;17439;48.092;11.842;2023-02-24T03:52:18;3.33;;;1.42;;
30681;SDS011;17439;48.092;11.842;2023-02-24T04:00:34;7.70;;;1.92;;
30681;SDS011;17439;48.092;11.842;2023-02-24T04:03:13;4.20;;;1.80;;
30681;SDS011;17439;48.092;11.842;2023-02-24T04:05:47;2.83;;;1.50;;
30681;SDS011;17439;48.092;11.842;2023-02-24T04:08:23;6.28;;;1.90;;
30681;SDS011;17439;48.092;11.842;2023-02-24T04:11:00;4.95;;;1.98;;
30681;SDS011;17439;48.092;11.842;2023-02-24T04:13:52;7.45;;;2.30;;
30681;SDS011;17439;48.092;11.842;2023-02-24T04:16:26;3.13;;;1.98;;
30681;SDS011;17439;48.092;11.842;2023-02-24T04:18:59;6.50;;;2.30;;
30681;SDS011;17439;48.092;11.842;2023-02-24T04:21:33;3.30;;;1.75;;
30681;SDS011;17439;48.092;11.842;2023-02-24T04:24:04;3.40;;;1.80;;
30681;SDS011;17439;48.092;11.842;2023-02-24T04:26:33;4.13;;;1.63;;
30681;SDS011;17439;48.092;11.842;2023-02-24T04:29:02;2.60;;;1.70;;
30681;SDS011;17439;48.092;11.842;2023-02-24T04:31:29;6.25;;;3.75;;
30681;SDS011;17439;48.092;11.842;2023-02-24T04:33:58;4.78;;;1.88;;
30681;SDS011;17439;48.092;11.842;2023-02-24T04:36:34;4.65;;;2.00;;
30681;SDS011;17439;48.092;11.842;2023-02-24T04:39:00;7.07;;;2.38;;
30681;SDS011;17439;48.092;11.842;2023-02-24T04:41:28;3.20;;;1.98;;
30681;SDS011;17439;48.092;11.842;2023-02-24T04:43:55;8.45;;;1.95;;
30681;SDS011;17439;48.092;11.842;2023-02-24T04:46:21;4.72;;;2.28;;
30681;SDS011;17439;48.092;11.842;2023-02-24T04:48:48;2.92;;;1.95;;
30681;SDS011;17439;48.092;11.842;2023-02-24T04:51:15;4.70;;;2.13;;
30681;SDS011;17439;48.092;11.842;2023-02-24T04:53:41;5.97;;;1.63;;
30681;SDS011;17439;48.092;11.842;2023-02-24T04:56:08;5.55;;;2.05;;
30681;SDS011;17439;48.092;11.842;2023-02-24T04:58:36;3.88;;;1.90;;
30681;SDS011;17439;48.092;11.842;2023-02-24T05:01:07;3.25;;;2.05;;
30681;SDS011;17439;48.092;11.842;2023-02-24T05:03:36;5.63;;;2.70;;
30681;SDS011;17439;48.092;11.842;2023-02-24T05:06:03;6.07;;;2.20;;
30681;SDS011;17439;48.092;11.842;2023-02-24T05:08:30;6.80;;;2.72;;
30681;SDS011;17439;48.092;11.842;2023-02-24T05:10:57;4.13;;;1.98;;
30681;SDS011;17439;48.092;11.842;2023-02-24T05:13:25;3.53;;;2.17;;
30681;SDS011;17439;48.092;11.842;2023-02-24T05:15:54;5.32;;;2.35;;
30681;SDS011;17439;48.092;11.842;2023-02-24T05:18:23;4.68;;;2.13;;
30681;SDS011;17439;48.092;11.842;2023-02-24T05:20:53;4.55;;;2.40;;
30681;SDS011;17439;48.092;11.842;2023-02-24T05:23:40;7.78;;;2.55;;
30681;SDS011;17439;48.092;11.842;2023-02-24T05:26:08;5.57;;;2.10;;
30681;SDS011;17439;48.092;11.842;2023-02-24T05:28:37;6.10;;;3.03;;
30681;SDS011;17439;48.092;11.842;2023-02-24T05:31:06;6.28;;;2.40;;
30681;SDS011;17439;48.092;11.842;2023-02-24T05:33:35;5.25;;;2.92;;
30681;SDS011;17439;48.092;11.842;2023-02-24T05:36:04;4.63;;;2.35;;
30681;SDS011;17439;48.092;11.842;2023-02-24T05:38:32;7.63;;;2.97;;
30681;SDS011;17439;48.092;11.842;2023-02-24T05:41:09;5.70;;;1.97;;
30681;SDS011;17439;48.092;11.842;2023-02-24T05:43:37;5.57;;;1.88;;
30681;SDS011;17439;48.092;11.842;2023-02-24T05:46:04;5.60;;;2.10;;
30681;SDS011;17439;48.092;11.842;2023-02-24T05:48:31;6.10;;;2.13;;
30681;SDS011;17439;48.092;11.842;2023-02-24T05:50:58;3.22;;;2.08;;
30681;SDS011;17439;48.092;11.842;2023-02-24T05:53:25;6.85;;;2.65;;
30681;SDS011;17439;48.092;11.842;2023-02-24T05:55:52;7.03;;;2.25;;
30681;SDS011;17439;48.092;11.842;2023-02-24T05:58:19;6.50;;;2.00;;
30681;SDS011;17439;48.092;11.842;2023-02-24T06:00:45;9.48;;;3.00;;
30681;SDS011;17439;48.092;11.842;2023-02-24T06:03:12;8.02;;;2.25;;
30681;SDS011;17439;48.092;11.842;2023-02-24T06:05:38;4.07;;;2.03;;
30681;SDS011;17439;48.092;11.842;2023-02-24T06:08:05;7.75;;;2.30;;
30681;SDS011;17439;48.092;11.842;2023-02-24T06:10:32;6.35;;;2.83;;
30681;SDS011;17439;48.092;11.842;2023-02-24T06:13:02;3.20;;;2.00;;
30681;SDS011;17439;48.092;11.842;2023-02-24T06:15:29;4.80;;;2.42;;
30681;SDS011;17439;48.092;11.842;2023-02-24T06:17:55;5.43;;;2.90;;
30681;SDS011;17439;48.092;11.842;2023-02-24T06:20:23;5.38;;;3.00;;
30681;SDS011;17439;48.092;11.842;2023-02-24T06:22:50;6.22;;;2.88;;
30681;SDS011;17439;48.092;11.842;2023-02-24T06:25:16;4.90;;;2.70;;
30681;SDS011;17439;48.092;11.842;2023-02-24T06:27:43;7.25;;;2.90;;
30681;SDS011;17439;48.092;11.842;2023-02-24T06:30:10;6.32;;;2.70;;
30681;SDS011;17439;48.092;11.842;2023-02-24T06:32:37;6.07;;;2.70;;
30681;SDS011;17439;48.092;11.842;2023-02-24T06:35:04;5.15;;;2.45;;
30681;SDS011;17439;48.092;11.842;2023-02-24T06:37:31;5.13;;;2.33;;
30681;SDS011;17439;48.092;11.842;2023-02-24T06:39:57;7.22;;;2.65;;
30681;SDS011;17439;48.092;11.842;2023-02-24T06:42:24;7.75;;;2.65;;
30681;SDS011;17439;48.092;11.842;2023-02-24T06:44:51;6.53;;;3.00;;
30681;SDS011;17439;48.092;11.842;2023-02-24T06:47:17;8.30;;;3.17;;
30681;SDS011;17439;48.092;11.842;2023-02-24T06:49:44;7.13;;;3.25;;
30681;SDS011;17439;48.092;11.842;2023-02-24T06:52:10;8.82;;;2.67;;
30681;SDS011;17439;48.092;11.842;2023-02-24T06:54:37;9.35;;;2.92;;
30681;SDS011;17439;48.092;11.842;2023-02-24T06:57:04;5.32;;;2.83;;
30681;SDS011;17439;48.092;11.842;2023-02-24T06:59:30;6.10;;;2.72;;
30681;SDS011;17439;48.092;11.842;2023-02-24T07:01:58;4.85;;;2.40;;
30681;SDS011;17439;48.092;11.842;2023-02-24T07:04:25;7.22;;;3.75;;
30681;SDS011;17439;48.092;11.842;2023-02-24T07:06:57;7.30;;;3.08;;
30681;SDS011;17439;48.092;11.842;2023-02-24T07:09:25;6.55;;;2.90;;
30681;SDS011;17439;48.092;11.842;2023-02-24T07:11:53;5.18;;;2.60;;
30681;SDS011;17439;48.092;11.842;2023-02-24T07:14:24;3.70;;;2.47;;
30681;SDS011;17439;48.092;11.842;2023-02-24T07:16:52;8.95;;;3.72;;
30681;SDS011;17439;48.092;11.842;2023-02-24T07:19:20;4.85;;;2.30;;
30681;SDS011;17439;48.092;11.842;2023-02-24T07:21:49;6.75;;;3.67;;
30681;SDS011;17439;48.092;11.842;2023-02-24T07:24:17;10.30;;;2.90;;
30681;SDS011;17439;48.092;11.842;2023-02-24T07:26:45;9.25;;;4.30;;
30681;SDS011;17439;48.092;11.842;2023-02-24T07:29:12;5.88;;;2.88;;
30681;SDS011;17439;48.092;11.842;2023-02-24T07:31:39;7.07;;;3.50;;
30681;SDS011;17439;48.092;11.842;2023-02-24T07:34:06;6.10;;;2.95;;
30681;SDS011;17439;48.092;11.842;2023-02-24T07:36:32;5.05;;;2.90;;
30681;SDS011;17439;48.092;11.842;2023-02-24T07:38:59;6.72;;;3.30;;
30681;SDS011;17439;48.092;11.842;2023-02-24T07:41:25;6.45;;;3.22;;
30681;SDS011;17439;48.092;11.842;2023-02-24T07:46:21;6.25;;;2.55;;
30681;SDS011;17439;48.092;11.842;2023-02-24T07:48:50;7.57;;;2.38;;
30681;SDS011;17439;48.092;11.842;2023-02-24T07:51:18;6.38;;;3.25;;
30681;SDS011;17439;48.092;11.842;2023-02-24T07:53:48;7.60;;;3.22;;
30681;SDS011;17439;48.092;11.842;2023-02-24T07:56:18;6.03;;;2.95;;
30681;SDS011;17439;48.092;11.842;2023-02-24T07:58:47;12.63;;;3.28;;
30681;SDS011;17439;48.092;11.842;2023-02-24T08:01:13;8.15;;;3.10;;
30681;SDS011;17439;48.092;11.842;2023-02-24T08:03:40;7.78;;;2.97;;
30681;SDS011;17439;48.092;11.842;2023-02-24T08:06:07;15.75;;;3.50;;
30681;SDS011;17439;48.092;11.842;2023-02-24T08:08:33;6.95;;;3.30;;
30681;SDS011;17439;48.092;11.842;2023-02-24T08:11:00;7.35;;;3.28;;
30681;SDS011;17439;48.092;11.842;2023-02-24T08:13:26;7.85;;;3.00;;
30681;SDS011;17439;48.092;11.842;2023-02-24T08:15:53;8.48;;;3.30;;
30681;SDS011;17439;48.092;11.842;2023-02-24T08:18:19;9.98;;;3.45;;
30681;SDS011;17439;48.092;11.842;2023-02-24T08:20:46;7.32;;;4.07;;
30681;SDS011;17439;48.092;11.842;2023-02-24T08:23:13;11.73;;;4.50;;
30681;SDS011;17439;48.092;11.842;2023-02-24T08:25:40;7.85;;;4.07;;
30681;SDS011;17439;48.092;11.842;2023-02-24T08:28:06;16.55;;;4.93;;
30681;SDS011;17439;48.092;11.842;2023-02-24T08:30:36;8.48;;;4.25;;
30681;SDS011;17439;48.092;11.842;2023-02-24T08:33:06;6.47;;;4.07;;
30681;SDS011;17439;48.092;11.842;2023-02-24T08:35:36;8.20;;;3.90;;
30681;SDS011;17439;48.092;11.842;2023-02-24T08:38:08;10.48;;;4.60;;
30681;SDS011;17439;48.092;11.842;2023-02-24T08:40:45;9.77;;;4.50;;
30681;SDS011;17439;48.092;11.842;2023-02-24T08:43:25;9.50;;;4.45;;
30681;SDS011;17439;48.092;11.842;2023-02-24T08:48:23;13.50;;;4.45;;
30681;SDS011;17439;48.092;11.842;2023-02-24T08:50:53;8.60;;;4.57;;
30681;SDS011;17439;48.092;11.842;2023-02-24T08:53:21;6.10;;;3.65;;
30681;SDS011;17439;48.092;11.842;2023-02-24T08:55:48;11.52;;;4.45;;
30681;SDS011;17439;48.092;11.842;2023-02-24T08:58:19;11.95;;;4.50;;
30681;SDS011;17439;48.092;11.842;2023-02-24T09:00:46;11.13;;;4.80;;
30681;SDS011;17439;48.092;11.842;2023-02-24T09:03:14;9.35;;;4.28;;
30681;SDS011;17439;48.092;11.842;2023-02-24T09:05:44;10.48;;;5.38;;
30681;SDS011;17439;48.092;11.842;2023-02-24T09:08:11;11.98;;;5.75;;
30681;SDS011;17439;48.092;11.842;2023-02-24T09:10:38;15.27;;;5.78;;
30681;SDS011;17439;48.092;11.842;2023-02-24T09:13:05;12.27;;;5.72;;
30681;SDS011;17439;48.092;11.842;2023-02-24T09:15:31;17.02;;;6.50;;
30681;SDS011;17439;48.092;11.842;2023-02-24T09:17:58;14.10;;;5.88;;
30681;SDS011;17439;48.092;11.842;2023-02-24T09:20:24;7.93;;;4.60;;
30681;SDS011;17439;48.092;11.842;2023-02-24T09:22:52;15.70;;;5.03;;
30681;SDS011;17439;48.092;11.842;2023-02-24T09:25:20;12.48;;;4.78;;
30681;SDS011;17439;48.092;11.842;2023-02-24T09:27:48;10.70;;;5.45;;
30681;SDS011;17439;48.092;11.842;2023-02-24T09:30:31;10.63;;;5.07;;
30681;SDS011;17439;48.092;11.842;2023-02-24T09:32:57;13.55;;;4.68;;
30681;SDS011;17439;48.092;11.842;2023-02-24T09:35:24;10.13;;;4.72;;
30681;SDS011;17439;48.092;11.842;2023-02-24T09:37:51;19.17;;;6.20;;
30681;SDS011;17439;48.092;11.842;2023-02-24T09:40:17;16.83;;;6.00;;
30681;SDS011;17439;48.092;11.842;2023-02-24T09:42:44;11.75;;;5.68;;
30681;SDS011;17439;48.092;11.842;2023-02-24T09:45:21;9.98;;;5.68;;
30681;SDS011;17439;48.092;11.842;2023-02-24T09:47:49;12.85;;;6.15;;
30681;SDS011;17439;48.092;11.842;2023-02-24T09:50:20;14.60;;;5.30;;
30681;SDS011;17439;48.092;11.842;2023-02-24T09:53:14;13.02;;;6.25;;
30681;SDS011;17439;48.092;11.842;2023-02-24T09:55:43;15.25;;;6.82;;
30681;SDS011;17439;48.092;11.842;2023-02-24T10:03:59;15.32;;;6.43;;
30681;SDS011;17439;48.092;11.842;2023-02-24T10:06:44;13.48;;;5.78;;
30681;SDS011;17439;48.092;11.842;2023-02-24T10:17:26;18.02;;;7.57;;
30681;SDS011;17439;48.092;11.842;2023-02-24T10:19:54;17.73;;;6.68;;
30681;SDS011;17439;48.092;11.842;2023-02-24T10:33:39;15.68;;;6.90;;
30681;SDS011;17439;48.092;11.842;2023-02-24T10:36:10;15.60;;;6.95;;
30681;SDS011;17439;48.092;11.842;2023-02-24T10:38:39;15.68;;;7.53;;
30681;SDS011;17439;48.092;11.842;2023-02-24T10:41:07;15.25;;;8.05;;
30681;SDS011;17439;48.092;11.842;2023-02-24T10:43:35;15.45;;;8.63;;
30681;SDS011;17439;48.092;11.842;2023-02-24T10:46:02;13.60;;;7.00;;
30681;SDS011;17439;48.092;11.842;2023-02-24T10:48:29;17.10;;;8.70;;
30681;SDS011;17439;48.092;11.842;2023-02-24T10:51:09;17.63;;;7.78;;
30681;SDS011;17439;48.092;11.842;2023-02-24T10:53:40;16.65;;;7.95;;
30681;SDS011;17439;48.092;11.842;2023-02-24T10:56:08;15.55;;;7.97;;
30681;SDS011;17439;48.092;11.842;2023-02-24T10:58:38;12.65;;;7.28;;
30681;SDS011;17439;48.092;11.842;2023-02-24T11:01:06;18.15;;;8.43;;
30681;SDS011;17439;48.092;11.842;2023-02-24T11:03:45;14.27;;;7.55;;
30681;SDS011;17439;48.092;11.842;2023-02-24T11:06:18;13.20;;;6.35;;
30681;SDS011;17439;48.092;11.842;2023-02-24T11:08:55;16.38;;;7.00;;
30681;SDS011;17439;48.092;11.842;2023-02-24T11:11:23;14.25;;;6.80;;
30681;SDS011;17439;48.092;11.842;2023-02-24T11:13:58;18.52;;;7.35;;
30681;SDS011;17439;48.092;11.842;2023-02-24T11:16:26;24.23;;;8.63;;
30681;SDS011;17439;48.092;11.842;2023-02-24T11:18:53;13.48;;;6.72;;
30681;SDS011;17439;48.092;11.842;2023-02-24T11:21:22;15.07;;;6.80;;
30681;SDS011;17439;48.092;11.842;2023-02-24T11:23:57;16.08;;;6.95;;
30681;SDS011;17439;48.092;11.842;2023-02-24T11:26:32;20.42;;;7.05;;
30681;SDS011;17439;48.092;11.842;2023-02-24T11:29:03;13.18;;;6.80;;
30681;SDS011;17439;48.092;11.842;2023-02-24T11:34:20;13.38;;;6.63;;
30681;SDS011;17439;48.092;11.842;2023-02-24T11:39:54;15.95;;;6.63;;
30681;SDS011;17439;48.092;11.842;2023-02-24T11:42:24;16.88;;;6.40;;
30681;SDS011;17439;48.092;11.842;2023-02-24T11:53:01;13.70;;;5.60;;
30681;SDS011;17439;48.092;11.842;2023-02-24T11:55:33;11.43;;;4.85;;
30681;SDS011;17439;48.092;11.842;2023-02-24T11:58:16;14.60;;;5.90;;
30681;SDS011;17439;48.092;11.842;2023-02-24T12:01:06;16.10;;;6.22;;
30681;SDS011;17439;48.092;11.842;2023-02-24T12:03:50;12.10;;;6.60;;
30681;SDS011;17439;48.092;11.842;2023-02-24T12:09:18;19.42;;;7.07;;
30681;SDS011;17439;48.092;11.842;2023-02-24T12:12:00;12.38;;;6.55;;
30681;SDS011;17439;48.092;11.842;2023-02-24T12:14:39;10.45;;;5.80;;
30681;SDS011;17439;48.092;11.842;2023-02-24T12:17:21;11.82;;;5.82;;
30681;SDS011;17439;48.092;11.842;2023-02-24T12:25:17;11.77;;;6.13;;
30681;SDS011;17439;48.092;11.842;2023-02-24T12:27:59;18.52;;;6.60;;
30681;SDS011;17439;48.092;11.842;2023-02-24T12:30:42;13.20;;;6.13;;
30681;SDS011;17439;48.092;11.842;2023-02-24T12:42:04;13.25;;;5.30;;
30681;SDS011;17439;48.092;11.842;2023-02-24T12:44:27;11.55;;;5.47;;
30681;SDS011;17439;48.092;11.842;2023-02-24T12:47:05;16.95;;;6.10;;
30681;SDS011;17439;48.092;11.842;2023-02-24T12:58:19;18.63;;;7.50;;
30681;SDS011;17439;48.092;11.842;2023-02-24T13:00:56;12.57;;;6.13;;
30681;SDS011;17439;48.092;11.842;2023-02-24T13:06:31;17.38;;;6.25;;
30681;SDS011;17439;48.092;11.842;2023-02-24T13:09:20;14.15;;;6.00;;
30681;SDS011;17439;48.092;11.842;2023-02-24T13:12:02;18.15;;;6.97;;
30681;SDS011;17439;48.092;11.842;2023-02-24T13:14:40;20.45;;;7.82;;
30681;SDS011;17439;48.092;11.842;2023-02-24T13:19:34;15.38;;;7.03;;
30681;SDS011;17439;48.092;11.842;2023-02-24T13:22:03;12.82;;;6.88;;
30681;SDS011;17439;48.092;11.842;2023-02-24T13:24:30;13.00;;;6.10;;
30681;SDS011;17439;48.092;11.842;2023-02-24T13:27:32;29.88;;;6.40;;
30681;SDS011;17439;48.092;11.842;2023-02-24T13:32:43;20.48;;;7.43;;
30681;SDS011;17439;48.092;11.842;2023-02-24T13:37:42;15.07;;;7.72;;
30681;SDS011;17439;48.092;11.842;2023-02-24T13:42:55;20.73;;;8.75;;
30681;SDS011;17439;48.092;11.842;2023-02-24T13:45:25;22.95;;;9.57;;
30681;SDS011;17439;48.092;11.842;2023-02-24T13:51:23;22.88;;;9.38;;
30681;SDS011;17439;48.092;11.842;2023-02-24T14:02:19;20.55;;;7.68;;
30681;SDS011;17439;48.092;11.842;2023-02-24T14:04:53;15.90;;;8.10;;
30681;SDS011;17439;48.092;11.842;2023-02-24T14:07:22;16.10;;;7.35;;
30681;SDS011;17439;48.092;11.842;2023-02-24T14:09:52;12.52;;;6.78;;
30681;SDS011;17439;48.092;11.842;2023-02-24T14:12:25;13.02;;;6.72;;
30681;SDS011;17439;48.092;11.842;2023-02-24T14:14:55;17.70;;;5.95;;
30681;SDS011;17439;48.092;11.842;2023-02-24T14:17:24;14.30;;;6.87;;
30681;SDS011;17439;48.092;11.842;2023-02-24T14:19:50;20.63;;;7.32;;
30681;SDS011;17439;48.092;11.842;2023-02-24T14:22:18;17.60;;;7.78;;
30681;SDS011;17439;48.092;11.842;2023-02-24T14:24:46;17.67;;;7.97;;
30681;SDS011;17439;48.092;11.842;2023-02-24T14:27:17;18.30;;;8.43;;
30681;SDS011;17439;48.092;11.842;2023-02-24T14:29:48;21.70;;;9.43;;
30681;SDS011;17439;48.092;11.842;2023-02-24T14:32:20;18.20;;;8.18;;
30681;SDS011;17439;48.092;11.842;2023-02-24T14:34:49;20.80;;;8.57;;
30681;SDS011;17439;48.092;11.842;2023-02-24T14:37:22;20.05;;;8.30;;
30681;SDS011;17439;48.092;11.842;2023-02-24T14:39:52;24.27;;;9.90;;
30681;SDS011;17439;48.092;11.842;2023-02-24T14:42:22;20.38;;;10.10;;
30681;SDS011;17439;48.092;11.842;2023-02-24T14:44:51;23.70;;;9.75;;
30681;SDS011;17439;48.092;11.842;2023-02-24T14:47:20;23.15;;;9.45;;
30681;SDS011;17439;48.092;11.842;2023-02-24T14:52:32;16.05;;;8.15;;
30681;SDS011;17439;48.092;11.842;2023-02-24T14:55:01;19.40;;;8.60;;
30681;SDS011;17439;48.092;11.842;2023-02-24T14:57:34;23.58;;;9.82;;
30681;SDS011;17439;48.092;11.842;2023-02-24T15:00:11;21.35;;;8.30;;
30681;SDS011;17439;48.092;11.842;2023-02-24T15:02:45;19.42;;;9.80;;
30681;SDS011;17439;48.092;11.842;2023-02-24T15:05:16;24.88;;;9.40;;
30681;SDS011;17439;48.092;11.842;2023-02-24T15:07:43;23.15;;;9.40;;
30681;SDS011;17439;48.092;11.842;2023-02-24T15:10:21;20.83;;;8.73;;
30681;SDS011;17439;48.092;11.842;2023-02-24T15:12:58;14.43;;;8.02;;
30681;SDS011;17439;48.092;11.842;2023-02-24T15:15:37;15.13;;;7.18;;
30681;SDS011;17439;48.092;11.842;2023-02-24T15:18:09;16.90;;;8.70;;
30681;SDS011;17439;48.092;11.842;2023-02-24T15:20:43;30.40;;;13.48;;
30681;SDS011;17439;48.092;11.842;2023-02-24T15:23:23;37.78;;;15.77;;
30681;SDS011;17439;48.092;11.842;2023-02-24T15:25:52;23.95;;;12.07;;
30681;SDS011;17439;48.092;11.842;2023-02-24T15:28:32;21.75;;;9.70;;
30681;SDS011;17439;48.092;11.842;2023-02-24T15:31:07;22.63;;;9.00;;
30681;SDS011;17439;48.092;11.842;2023-02-24T15:33:52;20.33;;;10.70;;
30681;SDS011;17439;48.092;11.842;2023-02-24T15:38:54;31.88;;;12.88;;
30681;SDS011;17439;48.092;11.842;2023-02-24T15:41:25;24.60;;;11.63;;
30681;SDS011;17439;48.092;11.842;2023-02-24T15:44:03;21.42;;;10.38;;
30681;SDS011;17439;48.092;11.842;2023-02-24T15:46:31;23.45;;;9.88;;
30681;SDS011;17439;48.092;11.842;2023-02-24T15:48:59;25.23;;;10.07;;
30681;SDS011;17439;48.092;11.842;2023-02-24T15:51:36;25.48;;;10.15;;
30681;SDS011;17439;48.092;11.842;2023-02-24T15:54:06;19.40;;;8.30;;
30681;SDS011;17439;48.092;11.842;2023-02-24T15:56:37;21.85;;;10.60;;
30681;SDS011;17439;48.092;11.842;2023-02-24T15:59:05;35.80;;;10.48;;
30681;SDS011;17439;48.092;11.842;2023-02-24T16:01:32;23.83;;;8.85;;
30681;SDS011;17439;48.092;11.842;2023-02-24T16:03:59;23.95;;;8.32;;
30681;SDS011;17439;48.092;11.842;2023-02-24T16:06:26;19.08;;;7.30;;
30681;SDS011;17439;48.092;11.842;2023-02-24T16:08:54;25.50;;;6.50;;
30681;SDS011;17439;48.092;11.842;2023-02-24T16:11:24;18.88;;;7.68;;
30681;SDS011;17439;48.092;11.842;2023-02-24T16:13:54;19.90;;;8.00;;
30681;SDS011;17439;48.092;11.842;2023-02-24T16:16:22;39.58;;;9.40;;
30681;SDS011;17439;48.092;11.842;2023-02-24T16:18:51;18.00;;;7.25;;
30681;SDS011;17439;48.092;11.842;2023-02-24T16:21:18;17.33;;;7.22;;
30681;SDS011;17439;48.092;11.842;2023-02-24T16:23:45;19.55;;;7.47;;
30681;SDS011;17439;48.092;11.842;2023-02-24T16:26:13;18.20;;;7.22;;
30681;SDS011;17439;48.092;11.842;2023-02-24T16:28:43;21.88;;;7.45;;
30681;SDS011;17439;48.092;11.842;2023-02-24T16:31:14;20.88;;;8.10;;
30681;SDS011;17439;48.092;11.842;2023-02-24T16:33:41;17.35;;;7.88;;
30681;SDS011;17439;48.092;11.842;2023-02-24T16:36:21;22.65;;;8.02;;
30681;SDS011;17439;48.092;11.842;2023-02-24T16:38:49;20.45;;;8.13;;
30681;SDS011;17439;48.092;11.842;2023-02-24T16:41:16;26.58;;;7.63;;
30681;SDS011;17439;48.092;11.842;2023-02-24T16:43:43;14.27;;;6.93;;
30681;SDS011;17439;48.092;11.842;2023-02-24T16:46:13;13.48;;;6.68;;
30681;SDS011;17439;48.092;11.842;2023-02-24T16:48:43;15.98;;;5.97;;
30681;SDS011;17439;48.092;11.842;2023-02-24T16:51:12;16.83;;;7.07;;
30681;SDS011;17439;48.092;11.842;2023-02-24T16:53:39;15.00;;;6.70;;
30681;SDS011;17439;48.092;11.842;2023-02-24T16:56:06;15.25;;;5.97;;
30681;SDS011;17439;48.092;11.842;2023-02-24T16:58:33;19.00;;;8.32;;
30681;SDS011;17439;48.092;11.842;2023-02-24T17:01:00;22.25;;;8.50;;
30681;SDS011;17439;48.092;11.842;2023-02-24T17:03:37;16.75;;;7.75;;
30681;SDS011;17439;48.092;11.842;2023-02-24T17:06:10;17.63;;;7.88;;
30681;SDS011;17439;48.092;11.842;2023-02-24T17:08:37;24.42;;;9.18;;
30681;SDS011;17439;48.092;11.842;2023-02-24T17:11:03;26.20;;;7.70;;